JBU1321 KBOS-KPBI
Flight info
| Callsign | JBU1321 |
|---|---|
| Flight time | N/A |
| Altitude | 36000 |
| Route | SSOXS7 SSOXS Q167 RIFLE HEADI Q97 KALDA Q131 WAALT Y289 DULEE CLMNT2 |
| Aircraft | A320/M-SDE3FGHIRWY/LB1 |
Departure
| Time | N/A |
|---|---|
| Airport | Boston Logan International Airport (KBOS) |
Arrival
| Time | 2026-05-06 16:06 |
|---|---|
| Airport | Palm Beach International Airport (KPBI) |
| Time | Latitude | Longitude | Altitude | Speed | Heading |
|---|---|---|---|---|---|
| 2026-05-06 15:10 | 32.43442 | -78.32392 | 36140 ft | 469 kts | 204° |
| 2026-05-06 15:10 | 32.37152 | -78.34461 | 36144 ft | 469 kts | 204° |
| 2026-05-06 15:11 | 32.30870 | -78.36532 | 36146 ft | 469 kts | 204° |
| 2026-05-06 15:11 | 32.24592 | -78.38603 | 36141 ft | 468 kts | 204° |
| 2026-05-06 15:12 | 32.18312 | -78.40664 | 36140 ft | 468 kts | 204° |
| 2026-05-06 15:12 | 32.12032 | -78.42715 | 36141 ft | 468 kts | 204° |
| 2026-05-06 15:13 | 32.05748 | -78.44767 | 36141 ft | 468 kts | 204° |
| 2026-05-06 15:13 | 31.99466 | -78.46824 | 36141 ft | 469 kts | 204° |
| 2026-05-06 15:14 | 31.93181 | -78.48879 | 36145 ft | 469 kts | 204° |
| 2026-05-06 15:14 | 31.86936 | -78.50907 | 36139 ft | 469 kts | 204° |
| 2026-05-06 15:15 | 31.80642 | -78.52949 | 36141 ft | 469 kts | 204° |
| 2026-05-06 15:15 | 31.74343 | -78.54998 | 36141 ft | 470 kts | 204° |
| 2026-05-06 15:16 | 31.68044 | -78.57039 | 36144 ft | 470 kts | 204° |
| 2026-05-06 15:16 | 31.61736 | -78.59078 | 36142 ft | 470 kts | 204° |
| 2026-05-06 15:17 | 31.55426 | -78.61119 | 36138 ft | 471 kts | 204° |
| 2026-05-06 15:17 | 31.49129 | -78.63208 | 36139 ft | 470 kts | 205° |
| 2026-05-06 15:18 | 31.42859 | -78.65381 | 36136 ft | 470 kts | 205° |
| 2026-05-06 15:18 | 31.36592 | -78.67571 | 36139 ft | 470 kts | 205° |
| 2026-05-06 15:19 | 31.30301 | -78.69722 | 36137 ft | 471 kts | 205° |
| 2026-05-06 15:19 | 31.24003 | -78.71861 | 36138 ft | 472 kts | 205° |
| 2026-05-06 15:20 | 31.17701 | -78.74002 | 36143 ft | 472 kts | 205° |
| 2026-05-06 15:20 | 31.11394 | -78.76146 | 36145 ft | 472 kts | 205° |
| 2026-05-06 15:21 | 31.05087 | -78.78295 | 36143 ft | 472 kts | 205° |
| 2026-05-06 15:21 | 30.98775 | -78.80436 | 36144 ft | 473 kts | 205° |
| 2026-05-06 15:22 | 30.92455 | -78.82577 | 36143 ft | 473 kts | 205° |
| 2026-05-06 15:22 | 30.86137 | -78.84721 | 36146 ft | 473 kts | 205° |
| 2026-05-06 15:23 | 30.79811 | -78.86857 | 36146 ft | 474 kts | 205° |
| 2026-05-06 15:23 | 30.73479 | -78.88991 | 36144 ft | 474 kts | 205° |
| 2026-05-06 15:24 | 30.67144 | -78.91124 | 36144 ft | 474 kts | 205° |
| 2026-05-06 15:24 | 30.60810 | -78.93251 | 36141 ft | 474 kts | 205° |
| 2026-05-06 15:25 | 30.54511 | -78.95362 | 36147 ft | 474 kts | 205° |
| 2026-05-06 15:25 | 30.48173 | -78.97490 | 36149 ft | 474 kts | 205° |
| 2026-05-06 15:26 | 30.41833 | -78.99609 | 36149 ft | 475 kts | 205° |
| 2026-05-06 15:26 | 30.35386 | -79.01455 | 36156 ft | 479 kts | 201° |
| 2026-05-06 15:27 | 30.28854 | -79.03063 | 36156 ft | 480 kts | 201° |
| 2026-05-06 15:27 | 30.22326 | -79.04674 | 36154 ft | 479 kts | 201° |
| 2026-05-06 15:28 | 30.15829 | -79.06370 | 36152 ft | 478 kts | 202° |
| 2026-05-06 15:28 | 30.09346 | -79.08096 | 36152 ft | 478 kts | 202° |
| 2026-05-06 15:29 | 30.02856 | -79.09809 | 36154 ft | 478 kts | 202° |
| 2026-05-06 15:29 | 29.96359 | -79.11499 | 36153 ft | 479 kts | 201° |
| 2026-05-06 15:30 | 29.89861 | -79.13169 | 36153 ft | 478 kts | 201° |
| 2026-05-06 15:30 | 29.83364 | -79.14849 | 36150 ft | 478 kts | 201° |
| 2026-05-06 15:31 | 29.76868 | -79.16519 | 36152 ft | 479 kts | 201° |
| 2026-05-06 15:31 | 29.70364 | -79.18178 | 36152 ft | 479 kts | 201° |
| 2026-05-06 15:32 | 29.60647 | -79.20638 | 36149 ft | 479 kts | 201° |
| 2026-05-06 15:32 | 29.54142 | -79.22298 | 36148 ft | 479 kts | 201° |
| 2026-05-06 15:33 | 29.47628 | -79.23960 | 36151 ft | 479 kts | 201° |
| 2026-05-06 15:33 | 29.41115 | -79.25618 | 36152 ft | 479 kts | 201° |
| 2026-05-06 15:34 | 29.34601 | -79.27271 | 36151 ft | 480 kts | 201° |
| 2026-05-06 15:34 | 29.28079 | -79.28910 | 36153 ft | 480 kts | 200° |
| 2026-05-06 15:35 | 29.21552 | -79.30549 | 36150 ft | 480 kts | 201° |
| 2026-05-06 15:35 | 29.15030 | -79.32200 | 36147 ft | 480 kts | 200° |
| 2026-05-06 15:36 | 29.08502 | -79.33854 | 35951 ft | 480 kts | 200° |
| 2026-05-06 15:36 | 29.05234 | -79.34676 | 35714 ft | 481 kts | 200° |
| 2026-05-06 15:36 | 29.01966 | -79.35495 | 35469 ft | 482 kts | 200° |
| 2026-05-06 15:37 | 28.98685 | -79.36320 | 35230 ft | 483 kts | 200° |
| 2026-05-06 15:37 | 28.95397 | -79.37147 | 34992 ft | 485 kts | 200° |
| 2026-05-06 15:37 | 28.92098 | -79.37975 | 34759 ft | 486 kts | 200° |
| 2026-05-06 15:37 | 28.88790 | -79.38806 | 34527 ft | 488 kts | 200° |
| 2026-05-06 15:38 | 28.85469 | -79.39638 | 34299 ft | 489 kts | 199° |
| 2026-05-06 15:38 | 28.82137 | -79.40469 | 34057 ft | 491 kts | 199° |
| 2026-05-06 15:38 | 28.78803 | -79.41304 | 33800 ft | 492 kts | 199° |
| 2026-05-06 15:38 | 28.75459 | -79.42146 | 33542 ft | 492 kts | 199° |
| 2026-05-06 15:39 | 28.72110 | -79.42985 | 33282 ft | 493 kts | 199° |
| 2026-05-06 15:39 | 28.68756 | -79.43825 | 33026 ft | 494 kts | 199° |
| 2026-05-06 15:39 | 28.65400 | -79.44665 | 32776 ft | 494 kts | 199° |
| 2026-05-06 15:39 | 28.62041 | -79.45504 | 32523 ft | 495 kts | 199° |
| 2026-05-06 15:40 | 28.58677 | -79.46344 | 32273 ft | 495 kts | 199° |
| 2026-05-06 15:40 | 28.55357 | -79.47171 | 32031 ft | 496 kts | 199° |
| 2026-05-06 15:40 | 28.51985 | -79.48009 | 31784 ft | 496 kts | 199° |
| 2026-05-06 15:40 | 28.48614 | -79.48846 | 31544 ft | 497 kts | 199° |
| 2026-05-06 15:41 | 28.45236 | -79.49685 | 31299 ft | 497 kts | 199° |
| 2026-05-06 15:41 | 28.41862 | -79.50521 | 31061 ft | 493 kts | 199° |
| 2026-05-06 15:41 | 28.38550 | -79.51337 | 30820 ft | 481 kts | 199° |
| 2026-05-06 15:41 | 28.35318 | -79.52133 | 30583 ft | 470 kts | 199° |
| 2026-05-06 15:42 | 28.32152 | -79.52912 | 30353 ft | 461 kts | 199° |
| 2026-05-06 15:42 | 28.29050 | -79.53680 | 30105 ft | 452 kts | 200° |
| 2026-05-06 15:42 | 28.26008 | -79.54475 | 29830 ft | 446 kts | 200° |
| 2026-05-06 15:42 | 28.23002 | -79.55299 | 29562 ft | 443 kts | 201° |
| 2026-05-06 15:43 | 28.20019 | -79.56138 | 29293 ft | 440 kts | 201° |
| 2026-05-06 15:43 | 28.17053 | -79.56976 | 29027 ft | 438 kts | 201° |
| 2026-05-06 15:43 | 28.14098 | -79.57802 | 28760 ft | 437 kts | 200° |
| 2026-05-06 15:43 | 28.11149 | -79.58616 | 28227 ft | 437 kts | 200° |
| 2026-05-06 15:44 | 28.08188 | -79.59424 | 27748 ft | 435 kts | 200° |
| 2026-05-06 15:44 | 28.05274 | -79.60207 | 27376 ft | 428 kts | 199° |
| 2026-05-06 15:44 | 28.02379 | -79.60982 | 26862 ft | 428 kts | 199° |
| 2026-05-06 15:44 | 27.99474 | -79.61764 | 26289 ft | 430 kts | 199° |
| 2026-05-06 15:45 | 27.96553 | -79.62554 | 25704 ft | 433 kts | 199° |
| 2026-05-06 15:45 | 27.93619 | -79.63350 | 25128 ft | 434 kts | 198° |
| 2026-05-06 15:45 | 27.90676 | -79.64151 | 24564 ft | 435 kts | 198° |
| 2026-05-06 15:45 | 27.87730 | -79.64953 | 24012 ft | 436 kts | 198° |
| 2026-05-06 15:46 | 27.84780 | -79.65755 | 23420 ft | 436 kts | 198° |
| 2026-05-06 15:46 | 27.81832 | -79.66553 | 22771 ft | 436 kts | 197° |
| 2026-05-06 15:46 | 27.78909 | -79.67341 | 22129 ft | 426 kts | 197° |
| 2026-05-06 15:46 | 27.76064 | -79.68104 | 21507 ft | 415 kts | 197° |
| 2026-05-06 15:47 | 27.73290 | -79.68850 | 20900 ft | 405 kts | 198° |
| 2026-05-06 15:47 | 27.70586 | -79.69578 | 20308 ft | 395 kts | 198° |
| 2026-05-06 15:47 | 27.67948 | -79.70287 | 19807 ft | 385 kts | 198° |
| 2026-05-06 15:47 | 27.65371 | -79.70982 | 19449 ft | 378 kts | 198° |
| 2026-05-06 15:48 | 27.62821 | -79.71673 | 18999 ft | 374 kts | 198° |
| 2026-05-06 15:48 | 27.60317 | -79.72350 | 18484 ft | 366 kts | 198° |
| 2026-05-06 15:48 | 27.57863 | -79.73010 | 17914 ft | 360 kts | 198° |
| 2026-05-06 15:48 | 27.55443 | -79.73664 | 17329 ft | 357 kts | 197° |
| 2026-05-06 15:49 | 27.53030 | -79.74316 | 16760 ft | 356 kts | 197° |
| 2026-05-06 15:49 | 27.50617 | -79.74967 | 16201 ft | 358 kts | 197° |
| 2026-05-06 15:49 | 27.48180 | -79.75624 | 15660 ft | 362 kts | 196° |
| 2026-05-06 15:49 | 27.45735 | -79.76282 | 15233 ft | 361 kts | 195° |
| 2026-05-06 15:50 | 27.43289 | -79.76938 | 14812 ft | 361 kts | 195° |
| 2026-05-06 15:50 | 27.41673 | -79.77372 | 14544 ft | 360 kts | 195° |
| 2026-05-06 15:50 | 27.39239 | -79.78024 | 14131 ft | 360 kts | 195° |
| 2026-05-06 15:50 | 27.36803 | -79.78676 | 13693 ft | 360 kts | 194° |
| 2026-05-06 15:51 | 27.34366 | -79.79330 | 13241 ft | 360 kts | 194° |
| 2026-05-06 15:51 | 27.31937 | -79.79981 | 12793 ft | 358 kts | 194° |
| 2026-05-06 15:51 | 27.29528 | -79.80627 | 12336 ft | 352 kts | 194° |
| 2026-05-06 15:51 | 27.27190 | -79.81252 | 11897 ft | 339 kts | 194° |
| 2026-05-06 15:52 | 27.24930 | -79.81856 | 11467 ft | 328 kts | 194° |
| 2026-05-06 15:52 | 27.22739 | -79.82443 | 11043 ft | 321 kts | 194° |
| 2026-05-06 15:52 | 27.20617 | -79.83162 | 10622 ft | 317 kts | 205° |
| 2026-05-06 15:52 | 27.18671 | -79.84283 | 10206 ft | 313 kts | 209° |
| 2026-05-06 15:53 | 27.16758 | -79.85430 | 9776 ft | 310 kts | 209° |
| 2026-05-06 15:53 | 27.14862 | -79.86562 | 9320 ft | 308 kts | 209° |
| 2026-05-06 15:53 | 27.13004 | -79.87669 | 8876 ft | 305 kts | 209° |
| 2026-05-06 15:53 | 27.11136 | -79.88779 | 8435 ft | 303 kts | 208° |
| 2026-05-06 15:54 | 27.09280 | -79.89879 | 7998 ft | 300 kts | 208° |
| 2026-05-06 15:54 | 27.07441 | -79.90969 | 7569 ft | 298 kts | 208° |
| 2026-05-06 15:54 | 27.05614 | -79.92055 | 7138 ft | 296 kts | 208° |
| 2026-05-06 15:54 | 27.03804 | -79.93132 | 6720 ft | 294 kts | 208° |
| 2026-05-06 15:55 | 27.02007 | -79.94201 | 6285 ft | 291 kts | 208° |
| 2026-05-06 15:55 | 27.00221 | -79.95261 | 5840 ft | 289 kts | 208° |
| 2026-05-06 15:55 | 26.98450 | -79.96311 | 5397 ft | 287 kts | 208° |
| 2026-05-06 15:55 | 26.96698 | -79.97347 | 4955 ft | 281 kts | 208° |
| 2026-05-06 15:56 | 26.95016 | -79.98406 | 4522 ft | 275 kts | 215° |
| 2026-05-06 15:56 | 26.93509 | -79.99705 | 4278 ft | 272 kts | 218° |
| 2026-05-06 15:56 | 26.92021 | -80.00997 | 4069 ft | 270 kts | 218° |
| 2026-05-06 15:56 | 26.90531 | -80.02283 | 3994 ft | 270 kts | 217° |
| 2026-05-06 15:57 | 26.89035 | -80.03567 | 4003 ft | 271 kts | 217° |
| 2026-05-06 15:57 | 26.87536 | -80.04852 | 4002 ft | 271 kts | 217° |
| 2026-05-06 15:57 | 26.86036 | -80.06137 | 4003 ft | 271 kts | 217° |
| 2026-05-06 15:57 | 26.84540 | -80.07422 | 4005 ft | 271 kts | 217° |
| 2026-05-06 15:58 | 26.83048 | -80.08714 | 4007 ft | 271 kts | 218° |
| 2026-05-06 15:58 | 26.81605 | -80.10073 | 4001 ft | 271 kts | 228° |
| 2026-05-06 15:58 | 26.80668 | -80.11883 | 3858 ft | 270 kts | 253° |
| 2026-05-06 15:58 | 26.80408 | -80.13952 | 3714 ft | 269 kts | 266° |
| 2026-05-06 15:59 | 26.80278 | -80.16043 | 3571 ft | 269 kts | 266° |
| 2026-05-06 15:59 | 26.80154 | -80.18132 | 3401 ft | 267 kts | 266° |
| 2026-05-06 15:59 | 26.80033 | -80.20187 | 3231 ft | 262 kts | 266° |
| 2026-05-06 15:59 | 26.79918 | -80.22200 | 3050 ft | 254 kts | 266° |
| 2026-05-06 16:00 | 26.79810 | -80.24125 | 2877 ft | 244 kts | 266° |
| 2026-05-06 16:00 | 26.79673 | -80.25990 | 2743 ft | 237 kts | 258° |
| 2026-05-06 16:00 | 26.78961 | -80.27588 | 2629 ft | 228 kts | 224° |
| 2026-05-06 16:00 | 26.77660 | -80.28446 | 2498 ft | 218 kts | 192° |
| 2026-05-06 16:01 | 26.76189 | -80.28698 | 2377 ft | 210 kts | 184° |
| 2026-05-06 16:01 | 26.74737 | -80.28844 | 2259 ft | 204 kts | 182° |
| 2026-05-06 16:01 | 26.73350 | -80.28766 | 2127 ft | 197 kts | 156° |
| 2026-05-06 16:01 | 26.72238 | -80.27947 | 2053 ft | 195 kts | 136° |
| 2026-05-06 16:02 | 26.71262 | -80.26892 | 2006 ft | 195 kts | 133° |
| 2026-05-06 16:02 | 26.70313 | -80.25811 | 2030 ft | 187 kts | 133° |
| 2026-05-06 16:02 | 26.69457 | -80.24798 | 2022 ft | 178 kts | 126° |
| 2026-05-06 16:02 | 26.68921 | -80.23571 | 2003 ft | 173 kts | 102° |
| 2026-05-06 16:03 | 26.68808 | -80.22237 | 1962 ft | 173 kts | 92° |
| 2026-05-06 16:03 | 26.68752 | -80.20897 | 1796 ft | 173 kts | 92° |
| 2026-05-06 16:03 | 26.68695 | -80.19564 | 1597 ft | 171 kts | 92° |
| 2026-05-06 16:03 | 26.68639 | -80.18250 | 1386 ft | 167 kts | 92° |
| 2026-05-06 16:04 | 26.68585 | -80.16993 | 1160 ft | 160 kts | 92° |
| 2026-05-06 16:04 | 26.68533 | -80.15777 | 968 ft | 149 kts | 93° |
| 2026-05-06 16:04 | 26.68486 | -80.14648 | 788 ft | 143 kts | 93° |
| 2026-05-06 16:04 | 26.68438 | -80.13551 | 594 ft | 140 kts | 93° |
| 2026-05-06 16:05 | 26.68392 | -80.12454 | 407 ft | 142 kts | 94° |
| 2026-05-06 16:05 | 26.68345 | -80.11345 | 235 ft | 142 kts | 94° |
| 2026-05-06 16:05 | 26.68298 | -80.10243 | 41 ft | 141 kts | 94° |
| 2026-05-06 16:05 | 26.68254 | -80.09298 | 22 ft | 86 kts | 92° |
| 2026-05-06 16:06 | 26.68234 | -80.08839 | 23 ft | 38 kts | 92° |
| 2026-05-06 16:06 | 26.68263 | -80.08666 | 22 ft | 14 kts | 49° |
| 2026-05-06 16:06 | 26.68333 | -80.08661 | 22 ft | 12 kts | 307° |
| 2026-05-06 16:06 | 26.68386 | -80.08719 | 22 ft | 13 kts | 3° |
| 2026-05-06 16:07 | 26.68438 | -80.08787 | 22 ft | 12 kts | 272° |
| 2026-05-06 16:07 | 26.68440 | -80.08865 | 22 ft | 11 kts | 272° |
| 2026-05-06 16:07 | 26.68444 | -80.08956 | 22 ft | 10 kts | 273° |
| 2026-05-06 16:07 | 26.68457 | -80.09003 | 22 ft | 4 kts | 321° |
| 2026-05-06 16:08 | 26.68480 | -80.08992 | 22 ft | 5 kts | 32° |
| 2026-05-06 16:08 | 26.68510 | -80.08974 | 22 ft | 3 kts | 26° |
| 2026-05-06 16:08 | 26.68517 | -80.08970 | 22 ft | 0 kts | 26° |